Terminal Aerodrome Forecast
Issued by NWS Chicago, IL

Home | Current Version | Previous Version | Text Only | Print | Product List | Glossary Off
Versions: 1 2 3 4 5 6 7 8 9 10 11 12 13 14 15 16 17 18 19 20 21 22 23 24 25 26 27

000
FTUS43 KLOT 270542
TAFRFD
TAF
KRFD 270542Z 2706/2806 11005KT 4SM -SHRA VCTS OVC035CB
      TEMPO 2706/2710 1 1/2SM TSRA OVC015CB
     FM271200 16006KT P6SM OVC025
     FM271700 20011KT P6SM SCT035 BKN050
     FM280100 21005KT P6SM FEW050 BKN090=

USA.gov is the U.S. government's official web portal to all federal, state and local government web resources and services.